Time;durP1;ratioP1;P1;durP2;ratioP2;P2;SDS_P1;SDS_P2;PMS_P1;PMS_P2;Temp;Humidity;BMP_temperature;BMP_pressure;BME280_temperature;BME280_humidity;BME280_pressure;Samples;Min_cycle;Max_cycle;Signal;HPM_P1;HPM_P2
2023/10/27 00:00:57;;;;;;;22.80;13.70;;;;;;;14.61;85.58;97988.52;79437;1297;3011770;-65
2023/10/27 00:03:25;;;;;;;19.80;13.10;;;;;;;14.96;84.95;97985.49;78236;1297;3048532;-65
2023/10/27 00:05:52;;;;;;;22.00;14.60;;;;;;;15.35;83.50;97987.91;79354;1300;3012843;-63
2023/10/27 00:08:18;;;;;;;22.00;14.00;;;;;;;15.38;83.09;98011.54;79330;1300;3012485;-65
2023/10/27 00:10:46;;;;;;;26.40;15.50;;;;;;;15.16;83.70;98002.90;78128;1300;3026220;-65
2023/10/27 00:13:13;;;;;;;29.10;16.60;;;;;;;14.92;84.40;97991.41;79327;1300;3013660;-66
2023/10/27 00:15:39;;;;;;;26.70;17.30;;;;;;;14.74;85.41;97986.02;79274;1296;3012863;-65
2023/10/27 00:18:07;;;;;;;24.30;12.70;;;;;;;14.59;85.87;97980.98;78214;1300;3029002;-65
2023/10/27 00:20:33;;;;;;;22.70;13.60;;;;;;;14.97;85.32;97977.27;79456;1300;3013041;-64
2023/10/27 00:23:00;;;;;;;23.40;14.30;;;;;;;15.38;83.65;97965.16;79448;1297;3011573;-64
2023/10/27 00:25:28;;;;;;;24.70;14.30;;;;;;;15.26;83.53;97966.95;78228;1300;3025072;-64
2023/10/27 00:27:54;;;;;;;23.70;14.10;;;;;;;14.95;84.93;97969.60;79548;1296;3012883;-66
2023/10/27 00:30:21;;;;;;;27.20;16.00;;;;;;;14.75;85.82;97972.65;79587;1297;3012903;-64
2023/10/27 00:32:49;;;;;;;29.40;16.90;;;;;;;14.32;87.80;97973.61;78107;1297;3028613;-66
2023/10/27 00:35:16;;;;;;;27.70;14.10;;;;;;;14.17;89.09;97971.55;79581;1302;3013037;-64
2023/10/27 00:37:42;;;;;;;31.40;16.20;;;;;;;14.39;88.97;97974.80;79412;1298;3013535;-65
2023/10/27 00:40:11;;;;;;;25.10;14.60;;;;;;;14.81;87.18;97975.09;78156;1300;3026145;-70
2023/10/27 00:42:38;;;;;;;25.50;15.70;;;;;;;14.60;87.37;97971.36;79573;1297;3013001;-66
2023/10/27 00:45:05;;;;;;;26.70;15.80;;;;;;;14.35;89.25;97971.42;79303;1297;3011546;-67
2023/10/27 00:47:35;;;;;;;30.00;17.20;;;;;;;14.16;90.89;97961.08;78180;1302;3049472;-65
2023/10/27 00:50:02;;;;;;;22.30;12.90;;;;;;;14.08;91.76;97949.75;79488;1297;3013117;-66
2023/10/27 00:52:29;;;;;;;26.40;15.40;;;;;;;14.32;91.32;97954.39;79313;1297;3013135;-66
2023/10/27 00:54:56;;;;;;;26.10;14.90;;;;;;;14.71;89.61;97951.90;78202;1297;3027526;-64
2023/10/27 00:57:23;;;;;;;28.30;14.60;;;;;;;14.76;89.69;97955.70;79350;1300;3018302;-64
2023/10/27 00:59:52;;;;;;;31.50;15.10;;;;;;;14.53;90.14;97950.44;79171;1296;3012125;-65
2023/10/27 01:02:21;;;;;;;28.30;16.10;;;;;;;14.27;91.60;97946.30;78114;1297;3047875;-64
2023/10/27 01:04:49;;;;;;;22.20;13.60;;;;;;;14.04;92.96;97943.47;79426;1299;3014132;-64
2023/10/27 01:07:16;;;;;;;24.70;13.60;;;;;;;14.44;92.75;97939.67;79382;1298;3011604;-64
2023/10/27 01:09:44;;;;;;;24.10;13.10;;;;;;;14.70;90.99;97936.90;78119;1297;3052537;-63
2023/10/27 01:12:10;;;;;;;25.40;14.10;;;;;;;14.69;90.59;97932.42;79374;1300;3013549;-65
2023/10/27 01:14:37;;;;;;;32.30;16.40;;;;;;;14.54;90.98;97936.90;79489;1297;3011686;-66
2023/10/27 01:17:05;;;;;;;30.20;16.10;;;;;;;14.33;91.87;97942.17;78122;1297;3026081;-65
2023/10/27 01:19:32;;;;;;;24.10;12.80;;;;;;;14.10;93.24;97937.39;79437;1298;3013535;-63
2023/10/27 01:21:58;;;;;;;27.90;13.50;;;;;;;14.54;92.71;97928.48;79402;1300;3011887;-64
2023/10/27 01:24:27;;;;;;;27.10;13.90;;;;;;;14.88;90.42;97922.55;78043;1300;3027549;-64
2023/10/27 01:26:54;;;;;;;24.70;14.00;;;;;;;14.93;89.72;97921.11;79370;1297;3014498;-66
2023/10/27 01:29:23;;;;;;;27.30;14.00;;;;;;;14.73;90.06;97924.75;79482;1296;3011910;-65
2023/10/27 01:31:51;;;;;;;33.90;16.00;;;;;;;14.49;91.08;97926.27;78376;1300;3048955;-65
2023/10/27 01:34:17;;;;;;;21.80;11.80;;;;;;;14.34;92.10;97927.66;79530;1297;3013490;-63
2023/10/27 01:36:44;;;;;;;27.80;14.60;;;;;;;14.56;91.67;97922.64;79381;1297;3013571;-68
2023/10/27 01:39:12;;;;;;;23.90;13.00;;;;;;;15.06;89.93;97920.52;78130;1301;3027166;-65
2023/10/27 01:41:39;;;;;;;30.60;14.30;;;;;;;15.15;89.14;97931.27;79388;1297;3012843;-66
2023/10/27 01:44:06;;;;;;;28.30;14.50;;;;;;;14.86;89.75;97939.06;79608;1297;3013008;-66
2023/10/27 01:46:33;;;;;;;31.10;15.70;;;;;;;14.68;90.67;97929.34;78209;1297;3048779;-64
2023/10/27 01:49:00;;;;;;;27.00;13.00;;;;;;;14.38;92.45;97924.74;79479;1300;3013039;-64
2023/10/27 01:51:26;;;;;;;31.10;15.20;;;;;;;14.64;92.18;97922.50;79500;1300;3011659;-65
2023/10/27 01:53:54;;;;;;;25.20;15.10;;;;;;;15.14;90.43;97919.70;78321;1300;3026975;-64
2023/10/27 01:56:21;;;;;;;35.30;16.90;;;;;;;15.20;89.14;97914.83;79368;1300;3013504;-65
2023/10/27 01:58:48;;;;;;;31.90;17.30;;;;;;;14.74;90.86;97919.06;79339;1298;3013058;-65
2023/10/27 02:01:17;;;;;;;40.40;21.00;;;;;;;14.53;92.28;97923.95;78236;1303;3049348;-63
2023/10/27 02:03:44;;;;;;;37.90;16.50;;;;;;;14.31;94.38;97924.01;79427;1297;3012749;-64
2023/10/27 02:06:10;;;;;;;34.10;17.80;;;;;;;14.67;93.60;97921.50;79498;1300;3011652;-64
2023/10/27 02:08:38;;;;;;;38.20;19.50;;;;;;;14.94;91.99;97918.60;78163;1300;3052833;-63
2023/10/27 02:11:05;;;;;;;38.50;19.90;;;;;;;14.94;91.77;97912.70;79709;1301;3012804;-64
2023/10/27 02:13:31;;;;;;;42.30;22.10;;;;;;;14.77;92.09;97922.89;79485;1298;3013296;-67
2023/10/27 02:15:59;;;;;;;37.90;21.50;;;;;;;14.53;93.45;97930.45;78229;1298;3025697;-63
2023/10/27 02:18:26;;;;;;;36.50;18.40;;;;;;;14.28;94.73;97930.86;79406;1297;3013069;-67
2023/10/27 02:20:52;;;;;;;39.00;18.60;;;;;;;14.41;95.11;97934.96;79353;1296;3012879;-65
2023/10/27 02:23:20;;;;;;;42.40;20.40;;;;;;;14.83;92.92;97931.34;78182;1300;3028213;-65
2023/10/27 02:25:47;;;;;;;41.70;19.80;;;;;;;14.71;92.64;97933.96;79335;1300;3013462;-65
2023/10/27 02:28:13;;;;;;;46.30;23.10;;;;;;;14.42;93.98;97924.20;79344;1298;3011724;-63
2023/10/27 02:30:41;;;;;;;44.60;23.60;;;;;;;14.21;95.62;97930.01;77980;1299;3028684;-64
2023/10/27 02:33:08;;;;;;;39.30;19.90;;;;;;;13.94;97.90;97932.30;79318;1297;3013225;-65
2023/10/27 02:35:34;;;;;;;41.70;22.00;;;;;;;14.29;97.59;97933.54;79590;1300;3013744;-65
2023/10/27 02:38:04;;;;;;;47.30;24.50;;;;;;;14.40;96.42;97937.05;78300;1297;3025721;-65
2023/10/27 02:40:31;;;;;;;46.40;23.50;;;;;;;14.39;96.93;97934.16;79523;1297;3011828;-63
2023/10/27 02:42:57;;;;;;;52.00;25.00;;;;;;;14.27;97.75;97932.73;79285;1296;3014020;-65
2023/10/27 02:45:25;;;;;;;66.70;27.60;;;;;;;14.00;99.48;97927.08;78236;1300;3049902;-67
2023/10/27 02:47:52;;;;;;;57.30;26.00;;;;;;;13.80;100.00;97920.98;79643;1300;3013486;-66
2023/10/27 02:50:18;;;;;;;55.60;24.30;;;;;;;14.22;100.00;97904.52;79448;1300;3012134;-64
2023/10/27 02:52:46;;;;;;;45.80;21.80;;;;;;;14.75;98.14;97890.07;78220;1301;3026183;-68
2023/10/27 02:55:12;;;;;;;46.30;21.10;;;;;;;14.54;98.04;97893.67;79521;1296;3018532;-67
2023/10/27 02:57:39;;;;;;;40.20;20.90;;;;;;;14.24;99.35;97881.92;79427;1297;3011834;-67
2023/10/27 03:00:08;;;;;;;29.70;16.10;;;;;;;14.18;100.00;97870.92;78166;1300;3026004;-69
2023/10/27 03:02:36;;;;;;;28.10;15.20;;;;;;;14.38;100.00;97866.10;79659;1297;3013034;-69
2023/10/27 03:05:02;;;;;;;26.30;14.60;;;;;;;14.66;98.98;97856.58;79538;1298;3012054;-65
2023/10/27 03:07:30;;;;;;;24.40;12.70;;;;;;;14.37;99.72;97857.96;78177;1302;3052769;-64
2023/10/27 03:09:56;;;;;;;24.70;13.90;;;;;;;14.30;100.00;97859.55;79464;1298;3013834;-65
2023/10/27 03:12:23;;;;;;;13.30;8.60;;;;;;;14.10;100.00;97854.86;79513;1297;3013469;-65
2023/10/27 03:14:51;;;;;;;18.50;10.80;;;;;;;14.34;100.00;97842.77;78176;1300;3025716;-65
2023/10/27 03:17:17;;;;;;;17.30;10.50;;;;;;;14.47;100.00;97827.46;79519;1297;3013285;-66
2023/10/27 03:19:43;;;;;;;19.20;9.40;;;;;;;14.52;100.00;97826.99;79545;1298;3011738;-65
2023/10/27 03:22:12;;;;;;;19.30;10.00;;;;;;;14.18;100.00;97829.90;78355;1300;3024753;-67
2023/10/27 03:24:38;;;;;;;13.20;6.10;;;;;;;13.92;100.00;97841.02;79634;1297;3013000;-64
2023/10/27 03:27:05;;;;;;;12.10;7.50;;;;;;;14.13;100.00;97844.88;79397;1297;3013146;-67
2023/10/27 03:29:33;;;;;;;12.70;7.30;;;;;;;14.21;100.00;97848.92;78263;1298;3026315;-65
2023/10/27 03:32:00;;;;;;;14.70;7.90;;;;;;;14.19;100.00;97861.00;79430;1297;3013511;-65
2023/10/27 03:34:26;;;;;;;46.70;20.10;;;;;;;14.24;100.00;97878.73;79422;1297;3011689;-65
2023/10/27 03:36:54;;;;;;;29.20;14.30;;;;;;;14.04;100.00;97884.80;78246;1298;3027313;-67
2023/10/27 03:39:20;;;;;;;14.90;8.60;;;;;;;14.38;100.00;97873.52;79457;1297;3012907;-67
2023/10/27 03:41:48;;;;;;;17.00;8.70;;;;;;;14.64;100.00;97866.44;79493;1300;3011730;-65
2023/10/27 03:44:15;;;;;;;14.60;8.50;;;;;;;14.51;100.00;97854.75;78260;1296;3025765;-65
2023/10/27 03:46:42;;;;;;;12.50;8.00;;;;;;;14.26;100.00;97865.20;79501;1297;3019125;-65
2023/10/27 03:49:08;;;;;;;11.10;6.40;;;;;;;14.27;100.00;97860.02;79435;1300;3011847;-65
2023/10/27 03:51:36;;;;;;;10.60;6.60;;;;;;;14.69;100.00;97841.12;78220;1302;3028538;-65
2023/10/27 03:54:02;;;;;;;13.50;7.70;;;;;;;14.85;100.00;97838.39;79613;1300;3013333;-68
2023/10/27 03:56:31;;;;;;;10.50;7.50;;;;;;;14.94;99.22;97841.19;79456;1297;3013041;-68
2023/10/27 03:58:59;;;;;;;11.80;7.20;;;;;;;14.46;99.90;97846.98;78198;1297;3048116;-66
2023/10/27 04:01:29;;;;;;;7.60;4.60;;;;;;;14.28;100.00;97849.63;77200;1300;3250948;-69
2023/10/27 04:03:57;;;;;;;11.20;5.90;;;;;;;14.80;100.00;97839.16;78839;1300;3012872;-69
2023/10/27 04:06:24;;;;;;;8.90;5.90;;;;;;;15.03;99.03;97844.42;79569;1300;3013808;-67
2023/10/27 04:08:50;;;;;;;10.70;6.60;;;;;;;14.86;99.45;97841.16;79481;1297;3011837;-67
2023/10/27 04:11:18;;;;;;;11.50;7.20;;;;;;;14.66;100.00;97840.39;78284;1298;3026430;-67
2023/10/27 04:13:44;;;;;;;6.30;4.50;;;;;;;14.46;100.00;97842.23;79448;1297;3013113;-66
2023/10/27 04:16:12;;;;;;;9.00;6.00;;;;;;;14.62;100.00;97843.41;79566;1296;3011735;-68
2023/10/27 04:18:40;;;;;;;8.20;6.00;;;;;;;14.88;100.00;97835.61;78268;1300;3049493;-66
2023/10/27 04:21:06;;;;;;;9.40;6.60;;;;;;;14.96;100.00;97833.02;79505;1298;3013118;-68
2023/10/27 04:23:33;;;;;;;10.60;6.30;;;;;;;14.73;100.00;97840.75;79438;1296;3012739;-66
2023/10/27 04:26:00;;;;;;;6.10;4.10;;;;;;;14.54;100.00;97847.92;78218;1295;3026314;-66
2023/10/27 04:28:27;;;;;;;7.50;4.80;;;;;;;15.02;100.00;97845.42;79642;1296;3013665;-69
2023/10/27 04:30:54;;;;;;;8.30;5.20;;;;;;;15.08;99.87;97841.36;79600;1298;3013254;-66
2023/10/27 04:33:22;;;;;;;6.90;5.00;;;;;;;15.17;99.38;97841.09;78259;1300;3026340;-67
2023/10/27 04:35:49;;;;;;;7.60;4.70;;;;;;;14.95;99.65;97842.62;79616;1300;3013140;-68
2023/10/27 04:38:15;;;;;;;5.30;3.80;;;;;;;14.80;100.00;97846.01;79397;1298;3012147;-66
2023/10/27 04:40:43;;;;;;;7.70;4.50;;;;;;;15.23;99.62;97842.88;78235;1296;3052094;-67
2023/10/27 04:43:09;;;;;;;7.20;5.00;;;;;;;15.30;98.43;97846.08;79529;1297;3013386;-66
2023/10/27 04:45:36;;;;;;;6.00;4.60;;;;;;;15.28;98.42;97845.66;79428;1300;3011872;-67
2023/10/27 04:48:04;;;;;;;10.40;6.40;;;;;;;14.93;99.71;97848.98;78276;1297;3026295;-69
2023/10/27 04:50:33;;;;;;;17.10;8.00;;;;;;;14.72;100.00;97849.28;79558;1300;3012648;-67
2023/10/27 04:53:02;;;;;;;33.80;11.90;;;;;;;15.15;100.00;97843.56;79164;1298;3011602;-67
2023/10/27 04:55:50;;;;;;;23.30;10.10;;;;;;;15.38;98.64;97841.55;78304;1300;3068522;-65
2023/10/27 04:58:17;;;;;;;21.90;10.20;;;;;;;15.27;98.94;97847.83;79397;1297;3013494;-66
2023/10/27 05:00:44;;;;;;;14.20;7.10;;;;;;;15.14;99.52;97838.18;79468;1296;3012905;-64
2023/10/27 05:03:12;;;;;;;9.00;5.30;;;;;;;15.00;100.00;97832.97;78255;1299;3053476;-67
2023/10/27 05:05:38;;;;;;;7.20;4.20;;;;;;;15.28;99.17;97828.61;79300;1300;3013037;-64
2023/10/27 05:08:05;;;;;;;7.60;5.20;;;;;;;15.50;97.17;97834.27;79289;1298;3011672;-66
2023/10/27 05:10:33;;;;;;;6.60;4.60;;;;;;;15.43;97.04;97837.29;78285;1300;3027347;-63
2023/10/27 05:12:59;;;;;;;15.20;8.30;;;;;;;15.28;98.01;97841.69;79217;1297;3012972;-66
2023/10/27 05:15:26;;;;;;;8.70;5.80;;;;;;;15.06;99.49;97841.33;79564;1300;3012109;-66
2023/10/27 05:17:53;;;;;;;5.30;4.40;;;;;;;14.97;100.00;97847.88;78354;1297;3026129;-66
2023/10/27 05:20:20;;;;;;;7.00;4.60;;;;;;;15.35;99.38;97848.13;79513;1299;3012948;-65
2023/10/27 05:22:47;;;;;;;8.40;6.00;;;;;;;15.93;96.70;97846.83;79491;1300;3011668;-68
2023/10/27 05:25:15;;;;;;;9.60;6.10;;;;;;;15.96;95.55;97842.91;78221;1298;3025781;-64
2023/10/27 05:27:42;;;;;;;19.00;9.70;;;;;;;15.88;95.69;97842.95;79388;1300;3012855;-66
2023/10/27 05:30:09;;;;;;;18.00;11.20;;;;;;;15.71;96.28;97839.73;79443;1300;3011981;-68
2023/10/27 05:32:37;;;;;;;15.40;9.00;;;;;;;15.51;96.85;97839.58;78299;1297;3026499;-66
2023/10/27 05:35:04;;;;;;;14.70;8.10;;;;;;;15.89;96.18;97840.83;79519;1300;3012926;-68
2023/10/27 05:37:31;;;;;;;16.70;8.90;;;;;;;16.24;93.56;97843.77;79542;1298;3013289;-68
2023/10/27 05:39:59;;;;;;;13.40;8.70;;;;;;;16.26;93.03;97841.61;78403;1297;3024779;-70
2023/10/27 05:42:25;;;;;;;16.50;9.00;;;;;;;16.13;93.51;97837.06;79632;1300;3012508;-65
2023/10/27 05:44:52;;;;;;;17.00;10.40;;;;;;;15.85;94.60;97833.02;79556;1298;3011530;-66
2023/10/27 05:47:19;;;;;;;17.60;8.60;;;;;;;15.59;96.08;97842.98;78193;1299;3026401;-67
2023/10/27 05:49:46;;;;;;;18.00;8.70;;;;;;;16.01;95.43;97839.35;79857;1297;3013278;-64
2023/10/27 05:52:14;;;;;;;21.40;11.40;;;;;;;16.42;92.94;97834.91;79314;1300;3013116;-69
2023/10/27 05:54:43;;;;;;;35.00;15.20;;;;;;;16.45;92.59;97834.11;78335;1300;3069241;-67
2023/10/27 05:57:10;;;;;;;32.20;15.10;;;;;;;16.23;93.09;97836.88;79621;1300;3012760;-64
2023/10/27 05:59:36;;;;;;;28.90;14.50;;;;;;;15.87;94.85;97836.42;79754;1297;3011514;-66
2023/10/27 06:02:04;;;;;;;26.10;11.70;;;;;;;15.67;96.44;97838.46;78445;1297;3053589;-68
2023/10/27 06:04:32;;;;;;;29.00;13.70;;;;;;;16.02;95.86;97840.30;79666;1300;3013307;-67
2023/10/27 06:06:59;;;;;;;24.80;12.70;;;;;;;16.27;93.74;97850.32;79438;1297;3011831;-66
2023/10/27 06:09:29;;;;;;;27.90;13.50;;;;;;;16.21;94.02;97843.73;78362;1300;3027501;-68
2023/10/27 06:11:56;;;;;;;53.90;22.20;;;;;;;16.05;94.88;97838.77;79570;1297;3013213;-69
2023/10/27 06:14:22;;;;;;;48.60;20.60;;;;;;;15.71;96.78;97832.11;79642;1296;3012869;-66
2023/10/27 06:16:50;;;;;;;28.80;13.30;;;;;;;15.54;98.46;97830.16;78395;1297;3052830;-67
2023/10/27 06:19:16;;;;;;;31.60;12.80;;;;;;;15.75;98.78;97831.27;79593;1297;3012619;-67
2023/10/27 06:21:43;;;;;;;25.80;13.10;;;;;;;16.20;96.88;97833.80;79551;1300;3011587;-69
2023/10/27 06:24:11;;;;;;;22.10;12.50;;;;;;;16.13;96.51;97834.72;78577;1300;3026564;-68
2023/10/27 06:26:38;;;;;;;26.40;14.70;;;;;;;15.93;97.36;97829.84;79783;1297;3018404;-66
2023/10/27 06:29:04;;;;;;;26.40;13.30;;;;;;;15.73;98.79;97831.25;79948;1294;3013348;-67
2023/10/27 06:31:32;;;;;;;21.80;11.00;;;;;;;15.68;99.78;97834.91;78691;1298;3026651;-66
2023/10/27 06:34:02;;;;;;;23.60;12.00;;;;;;;16.02;98.89;97839.97;79605;1298;3012678;-66
2023/10/27 06:36:32;;;;;;;26.00;13.30;;;;;;;16.28;97.25;97841.04;79171;1298;3011630;-63
2023/10/27 06:39:01;;;;;;;28.30;14.30;;;;;;;16.13;97.32;97838.55;79552;1298;3013587;-67
2023/10/27 06:41:27;;;;;;;28.20;15.30;;;;;;;15.94;98.91;97840.83;79778;1296;3011792;-66
2023/10/27 06:43:55;;;;;;;27.40;15.10;;;;;;;15.79;99.87;97839.66;78392;1298;3056852;-63
2023/10/27 06:46:22;;;;;;;21.50;11.50;;;;;;;15.73;100.00;97832.88;79905;1297;3013453;-63
2023/10/27 06:48:50;;;;;;;25.00;13.30;;;;;;;16.19;99.44;97832.98;79723;1298;3012798;-66
2023/10/27 06:51:18;;;;;;;28.60;15.70;;;;;;;16.40;97.78;97828.45;78562;1298;3052835;-71
2023/10/27 06:53:44;;;;;;;28.10;16.00;;;;;;;16.42;97.62;97834.55;79894;1298;3018868;-68
2023/10/27 06:56:11;;;;;;;35.10;17.60;;;;;;;16.27;98.11;97836.20;79696;1300;3011581;-69
2023/10/27 06:58:39;;;;;;;26.60;12.70;;;;;;;16.18;99.31;97843.35;78491;1294;3026108;-66
2023/10/27 07:01:10;;;;;;;29.10;14.30;;;;;;;16.44;98.88;97839.14;79699;1297;3013993;-66
2023/10/27 07:03:38;;;;;;;35.00;18.00;;;;;;;16.75;96.73;97837.65;78309;1297;3050034;-68
2023/10/27 07:06:05;;;;;;;41.00;19.00;;;;;;;16.69;96.86;97834.34;79512;1298;3013191;-65
2023/10/27 07:08:32;;;;;;;38.50;19.70;;;;;;;16.36;98.56;97842.94;79382;1298;3011616;-67
2023/10/27 07:11:00;;;;;;;39.50;17.80;;;;;;;16.29;99.94;97848.92;78229;1298;3026584;-70
2023/10/27 07:13:27;;;;;;;41.90;17.20;;;;;;;16.50;99.61;97844.81;79623;1295;3013127;-69
2023/10/27 07:15:54;;;;;;;44.10;20.70;;;;;;;16.82;97.40;97845.27;79646;1298;3011618;-69
2023/10/27 07:18:22;;;;;;;35.90;19.80;;;;;;;16.62;98.12;97844.52;78315;1298;3026330;-68
2023/10/27 07:20:48;;;;;;;47.10;22.00;;;;;;;16.32;99.79;97851.57;79697;1297;3013502;-71
2023/10/27 07:23:18;;;;;;;44.40;15.60;;;;;;;16.13;100.00;97846.73;79521;1296;3011862;-67
2023/10/27 07:25:46;;;;;;;36.20;17.30;;;;;;;16.57;100.00;97838.20;78454;1295;3050670;-73
2023/10/27 07:28:13;;;;;;;40.50;18.50;;;;;;;16.72;99.27;97835.27;79557;1298;3013119;-73
2023/10/27 07:30:41;;;;;;;42.10;18.30;;;;;;;16.56;99.46;97847.63;79517;1298;3011574;-71
2023/10/27 07:33:10;;;;;;;35.60;17.40;;;;;;;16.58;99.59;97856.95;78324;1298;3051312;-68
2023/10/27 07:35:37;;;;;;;30.30;13.20;;;;;;;16.42;100.00;97852.96;79672;1298;3012775;-68
2023/10/27 07:38:04;;;;;;;44.00;14.80;;;;;;;16.72;99.54;97846.37;79748;1296;3011555;-70
2023/10/27 07:40:34;;;;;;;38.50;16.70;;;;;;;16.84;99.00;97851.27;78600;1297;3050463;-70
2023/10/27 07:43:01;;;;;;;34.10;18.10;;;;;;;16.80;99.08;97859.56;79639;1296;3012199;-69
2023/10/27 07:45:30;;;;;;;42.40;18.10;;;;;;;16.71;99.37;97867.75;79042;1299;3013415;-72
2023/10/27 07:47:58;;;;;;;34.70;13.40;;;;;;;16.51;100.00;97875.64;79582;1297;3018844;-68
2023/10/27 07:50:25;;;;;;;59.00;25.30;;;;;;;16.87;99.75;97870.59;79652;1300;3011695;-70
2023/10/27 07:52:53;;;;;;;41.90;18.60;;;;;;;17.02;98.65;97874.29;78402;1301;3052103;-71
2023/10/27 07:55:19;;;;;;;43.60;17.50;;;;;;;16.92;98.70;97871.93;79739;1298;3014323;-68
2023/10/27 07:57:46;;;;;;;38.10;17.50;;;;;;;16.68;99.89;97875.89;79557;1295;3011678;-70
2023/10/27 08:00:14;;;;;;;27.50;11.60;;;;;;;16.58;100.00;97873.81;78344;1297;3028999;-69
2023/10/27 08:02:41;;;;;;;28.20;13.70;;;;;;;17.08;99.15;97872.85;79688;1308;3014002;-68
2023/10/27 08:05:08;;;;;;;33.60;15.40;;;;;;;17.16;97.34;97875.80;79595;1296;3011827;-69
2023/10/27 08:07:36;;;;;;;38.20;16.20;;;;;;;17.22;97.41;97873.73;78322;1298;3055329;-71
2023/10/27 08:10:07;;;;;;;31.80;14.10;;;;;;;17.16;97.07;97874.28;79580;1296;3012900;-68
2023/10/27 08:12:35;;;;;;;28.40;11.40;;;;;;;16.85;97.90;97874.88;78585;1295;3055273;-69
2023/10/27 08:15:05;;;;;;;30.30;13.70;;;;;;;17.09;97.80;97888.48;79728;1296;3013703;-68
2023/10/27 08:17:34;;;;;;;34.00;15.80;;;;;;;17.50;95.29;97886.48;79070;1300;3011912;-70
2023/10/27 08:20:01;;;;;;;36.80;16.50;;;;;;;17.37;94.74;97880.33;79595;1301;3012819;-69
2023/10/27 08:22:32;;;;;;;36.50;16.10;;;;;;;17.18;95.89;97883.42;79624;1298;3011532;-72
2023/10/27 08:25:00;;;;;;;34.60;12.80;;;;;;;17.06;96.59;97882.17;78386;1300;3069210;-71
2023/10/27 08:27:27;;;;;;;34.50;13.10;;;;;;;17.32;96.34;97879.41;79631;1298;3018443;-68
2023/10/27 08:29:54;;;;;;;35.60;16.10;;;;;;;17.76;94.49;97883.92;79563;1298;3011871;-70
2023/10/27 08:32:22;;;;;;;34.50;19.30;;;;;;;17.91;93.30;97877.55;78778;1298;3026104;-68
2023/10/27 08:34:49;;;;;;;45.50;18.70;;;;;;;17.89;92.04;97885.49;79640;1298;3013064;-70
2023/10/27 08:37:16;;;;;;;31.60;14.00;;;;;;;17.63;93.14;97883.98;79784;1299;3012163;-73
2023/10/27 08:39:45;;;;;;;33.00;13.20;;;;;;;18.24;91.53;97885.91;78488;1295;3028734;-70
2023/10/27 08:42:12;;;;;;;33.50;15.30;;;;;;;18.51;89.02;97882.77;79651;1296;3013252;-72
2023/10/27 08:44:40;;;;;;;31.90;15.50;;;;;;;18.17;88.79;97883.27;79730;1296;3013728;-69
2023/10/27 08:47:08;;;;;;;39.70;16.30;;;;;;;17.82;90.93;97891.39;78537;1295;3052685;-71
2023/10/27 08:49:34;;;;;;;34.80;16.60;;;;;;;17.69;91.83;97888.39;79611;1300;3020635;-70
2023/10/27 08:52:02;;;;;;;33.70;14.10;;;;;;;17.59;92.31;97891.71;79650;1298;3012891;-72
2023/10/27 08:54:31;;;;;;;29.90;12.50;;;;;;;17.96;91.30;97887.60;78402;1299;3068797;-69
2023/10/27 08:56:57;;;;;;;32.60;15.90;;;;;;;18.24;89.31;97890.41;79600;1295;3013318;-71
2023/10/27 08:59:24;;;;;;;35.40;14.50;;;;;;;17.93;89.03;97882.84;79641;1297;3014334;-72
2023/10/27 09:01:53;;;;;;;34.00;18.60;;;;;;;17.80;89.94;97882.85;78788;1295;3054235;-69
2023/10/27 09:04:23;;;;;;;41.40;23.60;;;;;;;17.74;90.91;97883.64;79605;1298;3013420;-68
2023/10/27 09:06:51;;;;;;;23.80;9.30;;;;;;;17.61;91.51;97887.95;78339;1298;3052241;-72
2023/10/27 09:09:18;;;;;;;27.70;10.60;;;;;;;18.00;90.20;97886.83;79839;1298;3013363;-70
2023/10/27 09:11:47;;;;;;;24.30;12.10;;;;;;;18.81;86.22;97893.15;79534;1299;3011726;-69
2023/10/27 09:14:15;;;;;;;25.70;11.30;;;;;;;18.71;83.89;97895.36;78565;1294;3055617;-71
2023/10/27 09:16:43;;;;;;;24.00;11.80;;;;;;;18.38;83.02;97899.09;79885;1298;3013804;-71
2023/10/27 09:19:18;;;;;;;23.90;11.10;;;;;;;18.28;82.68;97896.98;79605;1300;3012432;-70
2023/10/27 09:21:46;;;;;;;19.70;10.60;;;;;;;18.20;82.83;97893.91;78336;1300;3053289;-71
2023/10/27 09:24:24;;;;;;;18.50;9.30;;;;;;;18.12;83.35;97898.60;79652;1298;3018502;-69
2023/10/27 09:26:53;;;;;;;21.00;10.30;;;;;;;18.61;81.07;97898.98;78267;1298;3051559;-71
2023/10/27 09:29:20;;;;;;;21.50;9.90;;;;;;;18.80;79.60;97904.89;79712;1295;3013738;-70
2023/10/27 09:31:47;;;;;;;24.80;11.60;;;;;;;18.36;79.30;97898.57;79570;1299;3013153;-73
2023/10/27 09:34:17;;;;;;;21.00;11.00;;;;;;;18.43;80.09;97898.40;78534;1298;3049344;-70
2023/10/27 09:36:44;;;;;;;19.70;10.40;;;;;;;18.38;79.47;97900.09;79816;1299;3013041;-72
2023/10/27 09:39:18;;;;;;;19.80;10.40;;;;;;;18.23;79.54;97902.56;79067;1294;3013725;-71
2023/10/27 09:42:08;;;;;;;21.20;8.90;;;;;;;18.03;81.03;97897.98;79569;1297;3012762;-72
2023/10/27 09:44:42;;;;;;;18.30;8.70;;;;;;;18.57;78.27;97914.52;78549;1303;3052573;-68
2023/10/27 09:47:15;;;;;;;20.20;9.00;;;;;;;18.57;76.87;97909.35;79911;1296;3011679;-73
2023/10/27 09:49:43;;;;;;;22.20;10.00;;;;;;;18.78;75.80;97906.17;78490;1299;3051017;-71
2023/10/27 09:52:12;;;;;;;17.70;8.80;;;;;;;18.58;75.51;97904.02;79744;1300;3013968;-70
2023/10/27 09:54:41;;;;;;;26.20;9.10;;;;;;;18.53;75.34;97891.95;79350;1298;3011810;-69
2023/10/27 09:57:10;;;;;;;19.40;9.10;;;;;;;18.31;76.15;97900.62;79616;1299;3013026;-68
2023/10/27 09:59:36;;;;;;;21.10;10.80;;;;;;;18.16;77.56;97906.21;79584;1298;3012946;-68
2023/10/27 10:02:05;;;;;;;20.10;9.80;;;;;;;18.17;78.34;97904.04;78552;1299;3051884;-72
2023/10/27 10:04:55;;;;;;;14.40;7.20;;;;;;;18.19;78.26;97909.80;79759;1296;3013588;-71
2023/10/27 10:07:51;;;;;;;20.00;7.90;;;;;;;18.58;77.39;97910.92;78358;1300;3052346;-72
2023/10/27 10:10:29;;;;;;;16.90;9.00;;;;;;;19.01;75.68;97902.25;78340;1298;3051555;-71
2023/10/27 10:13:04;;;;;;;20.00;10.10;;;;;;;18.70;76.65;97906.60;78288;1298;3053599;-68
2023/10/27 10:15:37;;;;;;;19.80;9.40;;;;;;;18.48;77.14;97909.27;79208;1299;3011876;-69
2023/10/27 10:18:05;;;;;;;24.40;11.10;;;;;;;18.36;78.07;97903.73;79571;1299;3011847;-70
2023/10/27 10:20:49;;;;;;;24.50;11.40;;;;;;;18.23;79.36;97908.57;78597;1298;3069547;-70
2023/10/27 10:23:17;;;;;;;18.10;7.10;;;;;;;18.31;79.38;97905.17;78390;1295;3053018;-69
2023/10/27 10:25:51;;;;;;;31.60;10.80;;;;;;;19.12;77.39;97913.58;79706;1297;3013088;-72
2023/10/27 10:28:19;;;;;;;19.60;8.90;;;;;;;19.66;74.84;97915.23;78444;1299;3053925;-71
2023/10/27 10:30:46;;;;;;;20.40;8.40;;;;;;;19.74;73.99;97925.73;79678;1298;3013832;-70
2023/10/27 10:33:16;;;;;;;24.50;9.90;;;;;;;19.48;73.96;97925.05;79650;1300;3013040;-69
2023/10/27 10:35:44;;;;;;;19.10;10.10;;;;;;;18.97;75.18;97932.20;78420;1298;3071136;-71
2023/10/27 10:38:19;;;;;;;21.50;9.50;;;;;;;18.68;76.49;97926.00;79635;1298;3013738;-70
2023/10/27 10:41:00;;;;;;;24.00;10.60;;;;;;;18.38;78.06;97918.56;78416;1298;3050372;-71
2023/10/27 10:43:34;;;;;;;24.70;10.50;;;;;;;18.28;78.35;97920.75;78371;1298;3054806;-68
2023/10/27 10:46:04;;;;;;;11.90;6.40;;;;;;;18.32;78.23;97928.48;79198;1298;3013488;-70
2023/10/27 10:48:35;;;;;;;19.50;7.50;;;;;;;19.07;75.60;97921.75;79680;1295;3013516;-68
2023/10/27 10:53:56;;;;;;;24.70;9.70;;;;;;;19.43;74.83;97907.45;78578;1300;3053452;-70
2023/10/27 10:56:24;;;;;;;14.60;9.00;;;;;;;19.63;74.78;97912.46;79747;1295;3012851;-71
2023/10/27 10:58:50;;;;;;;23.00;9.80;;;;;;;19.60;73.87;97914.64;79567;1298;3012281;-71
2023/10/27 11:01:22;;;;;;;18.80;10.10;;;;;;;19.45;74.23;97916.98;78661;1298;3027821;-71
2023/10/27 11:03:50;;;;;;;18.20;7.80;;;;;;;19.49;73.16;97923.05;79487;1300;3011684;-69
2023/10/27 11:06:19;;;;;;;12.80;7.70;;;;;;;19.41;72.01;97926.57;78395;1294;3049747;-72
2023/10/27 11:08:46;;;;;;;15.90;7.70;;;;;;;19.29;72.85;97929.58;79656;1295;3013119;-72
2023/10/27 11:11:18;;;;;;;13.10;6.00;;;;;;;19.20;72.92;97938.35;79689;1298;3013343;-70